Thunder radar more information blitzortung!


Rain radar  rain snow radar



Ingen spesiell oppmerksomhet nødvendig.    Det er ingen advarsler

Weather Underground History siden Text

Daglig sammendrag for november 17, 2018 enheter:  Metric    Engelsk   Begge
« Forrige Dag
Neste Dag »
Daglig Weekly Månedlig Årlig Custom
  Gjeldene: høy: Lav: Snitt:
Temperatur: -15.7 °C -17.8 °C -16.3 °C -15.7 °C
Duggpunkt: -16.4 °C -17.8 °C -16.8 °C -16.2 °C
Luftfuktighet: 92 % Humidity % 92 % 92 %
Vind: 17.9 km/h 0 km/h 0 km/h 6.1 km/h
Vindkast: 10.3 km/h 0 km/h - -
Vind:ESE - - ESE
Trykk: 35075.6 hPa 0 hPa 35038.3 hPa -
Nedbør: 0 mm      
Historical Graphs
 
 
Tabelldata for november 17, 2018
Tid Temperatur Duggpunkt Trykk Vind Vind Vindkast Luftfuktighet Regn Intensitet (Time)
-17.8 °C -17.8 °C 0 hPa Calm     Humidity % 0 mm
00:00 -15.2 °C -15.7 °C 35038.3 hPa SE 2.6 km/h 5.1 km/h 93 % 0 mm
00:05 -15.3 °C -16 °C 35041.7 hPa SE 2.6 km/h 5.1 km/h 92 % 0 mm
00:09 -15.4 °C -16 °C 35041.7 hPa East 9 km/h 6.4 km/h 93 % 0 mm
00:15 -15.4 °C -16 °C 35041.7 hPa ESE 5.1 km/h 10.3 km/h 93 % 0 mm
00:20 -15.4 °C -16.1 °C 35045.1 hPa East 5.1 km/h 10.3 km/h 93 % 0 mm
00:24 -15.4 °C -16 °C 35045.1 hPa East 9 km/h 4.3 km/h 93 % 0 mm
00:29 -15.4 °C -15.9 °C 35048.5 hPa East 9 km/h 5.6 km/h 93 % 0 mm
00:34 -15.3 °C -15.9 °C 35048.5 hPa East 9 km/h 4.7 km/h 93 % 0 mm
00:40 -15.4 °C -16 °C 35045.1 hPa East 2.6 km/h 5.1 km/h 93 % 0 mm
00:44 -15.5 °C -16.1 °C 35048.5 hPa East 9 km/h   93 % 0 mm
00:50 -15.7 °C -16.2 °C 35051.9 hPa Calm   5.1 km/h 93 % 0 mm
00:55 -15.7 °C -16.3 °C 35051.9 hPa Calm   5.1 km/h 93 % 0 mm
01:00 -15.8 °C -16.4 °C 35055.3 hPa East 2.6 km/h 5.1 km/h 93 % 0 mm
01:05 -15.9 °C -16.5 °C 35058.6 hPa East 2.6 km/h 5.1 km/h 93 % 0 mm
01:10 -15.9 °C -16.5 °C 35058.6 hPa East 2.6 km/h 5.1 km/h 93 % 0 mm
01:14 -16 °C -16.6 °C 35058.6 hPa East 6 km/h 2.6 km/h 93 % 0 mm
01:20 -16.1 °C -16.6 °C 35058.6 hPa Calm   5.1 km/h 93 % 0 mm
01:24 -16.1 °C -16.7 °C 35058.6 hPa East 6 km/h   93 % 0 mm
01:30 -16.1 °C -16.6 °C 35058.6 hPa East 2.6 km/h 5.1 km/h 94 % 0 mm
01:35 -16.3 °C -16.8 °C 35062 hPa East 2.6 km/h 5.1 km/h 93 % 0 mm
01:39 -16.3 °C -16.8 °C 35062 hPa East 6 km/h 0.5 km/h 94 % 0 mm
01:44 -16.3 °C -16.8 °C 35065.4 hPa ESE 6 km/h 2.6 km/h 94 % 0 mm
01:49 -16.3 °C -16.8 °C 35065.4 hPa ESE 6 km/h 2.9 km/h 94 % 0 mm
01:54 -16.2 °C -16.7 °C 35065.4 hPa ESE 9 km/h 2.1 km/h 94 % 0 mm
02:00 -15.9 °C -16.3 °C 35068.8 hPa SE 2.6 km/h 7.7 km/h 95 % 0 mm
02:05 -15.7 °C -16.2 °C 35072.2 hPa SSE 2.6 km/h 5.1 km/h 95 % 0 mm
02:09 -15.7 °C -16.2 °C 35072.2 hPa South 9 km/h 2.1 km/h 94 % 0 mm
02:15 -15.7 °C -16.2 °C 35072.2 hPa South 2.6 km/h 7.7 km/h 94 % 0 mm
02:20 -15.7 °C -16.2 °C 35075.6 hPa SSE 2.6 km/h 10.3 km/h 94 % 0 mm
02:25 -15.8 °C -16.2 °C 35075.6 hPa SSE 2.6 km/h 10.3 km/h 94 % 0 mm
02:29 -15.8 °C -16.3 °C 35075.6 hPa SSE 9 km/h 1.8 km/h 94 % 0 mm
02:34 -15.7 °C -16.2 °C 35079 hPa SSE 6 km/h 4.7 km/h 94 % 0 mm
02:39 -15.7 °C -16.2 °C 35079 hPa SE 9 km/h 2.3 km/h 94 % 0 mm
02:45 -15.7 °C -16.2 °C 35079 hPa SE 2.6 km/h 7.7 km/h 94 % 0 mm
02:50 -15.7 °C -16.2 °C 35075.6 hPa ESE 7.7 km/h 18.2 km/h 94 % 0 mm
02:55 -15.5 °C -16 °C 35075.6 hPa ESE 7.7 km/h 18.2 km/h 94 % 0 mm
02:59 -15.3 °C -15.8 °C 35075.6 hPa SE 17.9 km/h 6.3 km/h 94 % 0 mm
03:05 -15.2 °C -15.7 °C 35075.6 hPa SE 5.1 km/h 12.9 km/h 94 % 0 mm
03:09 -15.2 °C -15.7 °C 35075.6 hPa ESE 11.9 km/h 7.2 km/h 93 % 0 mm
03:14 -15.2 °C -15.8 °C 35075.6 hPa SE 11.9 km/h 5.6 km/h 93 % 0 mm
03:20 -15.2 °C -15.8 °C 35075.6 hPa ESE 2.6 km/h 7.7 km/h 93 % 0 mm
03:24 -15.3 °C -15.9 °C 35075.6 hPa ESE 15 km/h 2.9 km/h 93 % 0 mm
03:30 -15.4 °C -16.1 °C 35075.6 hPa ESE 2.6 km/h 7.7 km/h 92 % 0 mm
03:35 -15.5 °C -16.2 °C 35072.2 hPa ESE 2.6 km/h 5.1 km/h 92 % 0 mm
03:39 -15.6 °C -16.2 °C 35072.2 hPa SE 9 km/h 5.1 km/h 92 % 0 mm
03:44 -15.5 °C -16.1 °C 35072.2 hPa ESE 11.9 km/h 6.4 km/h 93 % 0 mm
03:50 -15.5 °C -16.1 °C 35072.2 hPa ESE 5.1 km/h 15.6 km/h 93 % 0 mm
03:55 -15.6 °C -16.2 °C 35072.2 hPa ESE 5.1 km/h 10.3 km/h 92 % 0 mm
04:00 -15.6 °C -16.2 °C 35072.2 hPa ESE 5.1 km/h 10.3 km/h 92 % 0 mm
04:04 -15.7 °C -16.3 °C 35072.2 hPa East 15 km/h 9 km/h 92 % 0 mm
04:10 -15.7 °C -16.3 °C 35072.2 hPa East 2.6 km/h 10.3 km/h 92 % 0 mm
04:14 -15.7 °C -16.4 °C 35075.6 hPa ESE 17.9 km/h 10.3 km/h 92 % 0 mm
Bernervegen Værstasjon
Compliments of Weather Underground - 2 mb

Script utviklet av  Jim McMurry - jmcmurry@mwt.net Tilpasset for tamplaten av  Wim van der Kuil - Leuven-Template.eu

Du finner vår vær info også på:

European Weather Network

WeatherCloud

Weather Underground

AWEKAS

HAMweather, WeatherForYou, PWS Weather

Utrustning vi bruker:

vær-station
Davis VP2

vær-programmet
Weather Display

Davis VP2

Weather Display